Time;durP1;ratioP1;P1;durP2;ratioP2;P2;SDS_P1;SDS_P2;PMS_P1;PMS_P2;Temp;Humidity;BMP_temperature;BMP_pressure;BME280_temperature;BME280_humidity;BME280_pressure;Samples;Min_cycle;Max_cycle;Signal;HPM_P1;HPM_P2
2023/12/12 00:00:10;;;;;;;8.75;2.92;;;;;;;;;;686898;28;1690;-68
2023/12/12 00:00:33;;;;;;;9.40;2.80;;;;;;;;;;684564;28;944;-69
2023/12/12 00:00:53;;;;;;;10.57;3.03;;;;;;;;;;682881;28;4233;-68
2023/12/12 00:01:19;;;;;;;10.23;2.90;;;;;;;;;;684753;28;2345;-68
2023/12/12 00:01:41;;;;;;;12.07;3.20;;;;;;;;;;684646;28;1153;-68
2023/12/12 00:02:02;;;;;;;10.75;3.20;;;;;;;;;;687782;28;1027;-68
2023/12/12 00:02:22;;;;;;;9.43;3.20;;;;;;;;;;689088;28;1965;-68
2023/12/12 00:02:42;;;;;;;9.93;2.97;;;;;;;;;;690547;28;853;-68
2023/12/12 00:03:02;;;;;;;8.43;2.90;;;;;;;;;;689530;28;830;-68
2023/12/12 00:03:23;;;;;;;8.02;2.90;;;;;;;;;;689434;28;1170;-68
2023/12/12 00:03:43;;;;;;;8.97;2.97;;;;;;;;;;689790;28;4247;-68
2023/12/12 00:04:04;;;;;;;11.35;3.47;;;;;;;;;;690195;28;884;-68
2023/12/12 00:04:24;;;;;;;11.40;3.47;;;;;;;;;;689135;28;2516;-68
2023/12/12 00:04:44;;;;;;;10.13;3.08;;;;;;;;;;690236;28;801;-68
2023/12/12 00:05:05;;;;;;;10.70;3.10;;;;;;;;;;689033;28;936;-68
2023/12/12 00:05:25;;;;;;;12.75;3.42;;;;;;;;;;691078;28;1752;-69
2023/12/12 00:05:46;;;;;;;12.00;3.17;;;;;;;;;;690550;28;825;-68
2023/12/12 00:06:07;;;;;;;11.63;3.05;;;;;;;;;;689630;28;1781;-69
2023/12/12 00:06:30;;;;;;;11.05;2.78;;;;;;;;;;689845;28;933;-68
2023/12/12 00:06:52;;;;;;;9.75;2.90;;;;;;;;;;689275;28;4222;-68
2023/12/12 00:07:13;;;;;;;13.70;3.50;;;;;;;;;;688123;28;1460;-68
2023/12/12 00:07:34;;;;;;;12.35;3.25;;;;;;;;;;690398;28;924;-69
2023/12/12 00:07:56;;;;;;;9.75;3.20;;;;;;;;;;690563;28;920;-68
2023/12/12 00:08:17;;;;;;;11.82;3.28;;;;;;;;;;688597;28;1404;-68
2023/12/12 00:08:38;;;;;;;12.45;2.95;;;;;;;;;;690152;28;865;-68
2023/12/12 00:08:59;;;;;;;13.30;3.38;;;;;;;;;;690289;28;1013;-68
2023/12/12 00:09:20;;;;;;;10.00;2.80;;;;;;;;;;688838;28;1017;-68
2023/12/12 00:09:40;;;;;;;10.40;2.63;;;;;;;;;;690084;28;4676;-69
2023/12/12 00:10:01;;;;;;;9.05;2.55;;;;;;;;;;690319;28;895;-68
2023/12/12 00:10:21;;;;;;;9.02;2.90;;;;;;;;;;689117;28;2281;-68
2023/12/12 00:10:42;;;;;;;9.70;3.10;;;;;;;;;;690406;28;782;-68
2023/12/12 00:11:02;;;;;;;9.13;3.23;;;;;;;;;;690277;28;1364;-68
2023/12/12 00:11:22;;;;;;;12.35;3.53;;;;;;;;;;688827;28;2276;-69
2023/12/12 00:11:42;;;;;;;14.03;4.10;;;;;;;;;;690542;28;927;-69
2023/12/12 00:12:03;;;;;;;11.53;3.53;;;;;;;;;;690158;28;893;-67
2023/12/12 00:12:23;;;;;;;9.50;2.75;;;;;;;;;;689028;28;2387;-69
2023/12/12 00:12:44;;;;;;;11.83;3.10;;;;;;;;;;689758;28;4346;-68
2023/12/12 00:13:04;;;;;;;10.63;3.25;;;;;;;;;;690377;28;952;-68
2023/12/12 00:13:24;;;;;;;11.33;3.30;;;;;;;;;;689084;28;1069;-68
2023/12/12 00:13:44;;;;;;;10.07;3.17;;;;;;;;;;690690;28;971;-68
2023/12/12 00:14:05;;;;;;;10.37;3.27;;;;;;;;;;690608;28;2198;-68
2023/12/12 00:14:25;;;;;;;11.38;3.15;;;;;;;;;;688871;28;2470;-68
2023/12/12 00:14:45;;;;;;;9.37;2.93;;;;;;;;;;689383;28;789;-68
2023/12/12 00:15:06;;;;;;;10.77;3.00;;;;;;;;;;690160;28;1308;-68
2023/12/12 00:15:26;;;;;;;11.60;3.15;;;;;;;;;;688966;28;2285;-68
2023/12/12 00:15:48;;;;;;;10.90;2.97;;;;;;;;;;688166;28;4354;-68
2023/12/12 00:16:08;;;;;;;10.45;3.00;;;;;;;;;;689350;28;1079;-68
2023/12/12 00:16:29;;;;;;;10.82;3.88;;;;;;;;;;690304;28;861;-68
2023/12/12 00:16:51;;;;;;;9.50;2.80;;;;;;;;;;690635;28;862;-69
2023/12/12 00:17:11;;;;;;;7.80;2.50;;;;;;;;;;688989;28;2475;-68
2023/12/12 00:17:31;;;;;;;7.72;2.65;;;;;;;;;;689599;28;925;-68
2023/12/12 00:17:52;;;;;;;8.43;2.80;;;;;;;;;;690350;28;936;-69
2023/12/12 00:18:12;;;;;;;9.63;3.30;;;;;;;;;;689580;28;2348;-68
2023/12/12 00:18:35;;;;;;;11.52;3.00;;;;;;;;;;690084;28;864;-69
2023/12/12 00:18:55;;;;;;;9.38;2.80;;;;;;;;;;689692;28;4772;-68
2023/12/12 00:19:16;;;;;;;10.30;3.20;;;;;;;;;;689019;28;1803;-67
2023/12/12 00:19:40;;;;;;;12.00;3.47;;;;;;;;;;690459;28;982;-68
2023/12/12 00:20:00;;;;;;;9.07;3.08;;;;;;;;;;690070;28;3361;-68
2023/12/12 00:20:21;;;;;;;10.07;3.10;;;;;;;;;;689150;28;1491;-68
2023/12/12 00:20:41;;;;;;;9.15;2.83;;;;;;;;;;690467;28;853;-68
2023/12/12 00:21:02;;;;;;;10.13;2.77;;;;;;;;;;690345;28;801;-68
2023/12/12 00:21:22;;;;;;;9.60;3.00;;;;;;;;;;688461;28;1765;-68
2023/12/12 00:21:42;;;;;;;10.30;3.23;;;;;;;;;;689665;28;4429;-69
2023/12/12 00:22:03;;;;;;;11.50;3.77;;;;;;;;;;690147;28;1045;-68
2023/12/12 00:22:23;;;;;;;11.27;3.50;;;;;;;;;;689053;28;2165;-68
2023/12/12 00:22:43;;;;;;;10.67;3.07;;;;;;;;;;690782;28;1190;-68
2023/12/12 00:23:04;;;;;;;11.90;2.80;;;;;;;;;;689812;28;794;-68
2023/12/12 00:23:24;;;;;;;9.57;2.63;;;;;;;;;;689422;28;2315;-68
2023/12/12 00:23:44;;;;;;;8.63;2.57;;;;;;;;;;691527;28;889;-69
2023/12/12 00:24:04;;;;;;;8.52;2.97;;;;;;;;;;690201;28;995;-68
2023/12/12 00:24:24;;;;;;;9.00;2.80;;;;;;;;;;689775;28;1598;-68
2023/12/12 00:24:45;;;;;;;10.17;2.60;;;;;;;;;;689813;28;4489;-68
2023/12/12 00:25:05;;;;;;;7.87;2.50;;;;;;;;;;690000;28;932;-68
2023/12/12 00:25:25;;;;;;;7.78;2.88;;;;;;;;;;689518;28;1264;-68
2023/12/12 00:25:46;;;;;;;11.10;2.93;;;;;;;;;;690202;28;876;-68
2023/12/12 00:26:07;;;;;;;10.57;2.87;;;;;;;;;;690138;28;952;-68
2023/12/12 00:26:28;;;;;;;9.57;2.90;;;;;;;;;;689699;28;1863;-68
2023/12/12 00:26:48;;;;;;;11.43;3.30;;;;;;;;;;690262;28;972;-68
2023/12/12 00:27:09;;;;;;;9.60;2.63;;;;;;;;;;688994;28;2359;-68
2023/12/12 00:27:29;;;;;;;8.57;2.63;;;;;;;;;;689998;28;908;-68
2023/12/12 00:27:49;;;;;;;9.73;2.93;;;;;;;;;;689673;28;4309;-68
2023/12/12 00:28:09;;;;;;;10.43;3.57;;;;;;;;;;688610;28;1411;-68
2023/12/12 00:28:30;;;;;;;7.75;3.03;;;;;;;;;;690076;28;924;-68
2023/12/12 00:28:50;;;;;;;7.53;2.63;;;;;;;;;;690559;28;785;-69
2023/12/12 00:29:10;;;;;;;9.37;2.80;;;;;;;;;;689263;28;2520;-68
2023/12/12 00:29:31;;;;;;;9.65;2.95;;;;;;;;;;688600;28;1015;-68
2023/12/12 00:29:51;;;;;;;9.80;2.97;;;;;;;;;;687483;28;857;-68
2023/12/12 00:30:11;;;;;;;8.47;2.67;;;;;;;;;;684615;28;2074;-68
2023/12/12 00:30:32;;;;;;;9.85;2.95;;;;;;;;;;685503;28;929;-68
2023/12/12 00:30:52;;;;;;;13.50;3.70;;;;;;;;;;686130;28;4383;-68
2023/12/12 00:31:12;;;;;;;14.83;3.97;;;;;;;;;;685083;28;1824;-68
2023/12/12 00:31:33;;;;;;;12.93;3.87;;;;;;;;;;688368;28;888;-68
2023/12/12 00:31:53;;;;;;;10.63;3.33;;;;;;;;;;688800;28;916;-68
2023/12/12 00:32:13;;;;;;;9.27;3.03;;;;;;;;;;690980;28;1899;-68
2023/12/12 00:32:34;;;;;;;11.20;3.37;;;;;;;;;;690346;28;844;-68
2023/12/12 00:32:54;;;;;;;11.83;3.90;;;;;;;;;;689753;28;774;-68
2023/12/12 00:33:14;;;;;;;9.88;3.80;;;;;;;;;;690147;28;1427;-68
2023/12/12 00:33:34;;;;;;;9.60;3.30;;;;;;;;;;689664;28;4260;-68
2023/12/12 00:33:54;;;;;;;10.87;3.00;;;;;;;;;;690198;28;1919;-68
2023/12/12 00:34:15;;;;;;;11.35;2.83;;;;;;;;;;689116;28;1963;-69
2023/12/12 00:34:36;;;;;;;11.63;3.00;;;;;;;;;;689958;28;869;-68
2023/12/12 00:34:56;;;;;;;11.27;3.05;;;;;;;;;;690381;28;912;-68
2023/12/12 00:35:16;;;;;;;9.57;3.13;;;;;;;;;;689783;28;1849;-68
2023/12/12 00:35:36;;;;;;;9.48;3.00;;;;;;;;;;689536;28;920;-68
2023/12/12 00:35:59;;;;;;;9.77;2.90;;;;;;;;;;690445;28;805;-68
2023/12/12 00:36:19;;;;;;;10.70;3.20;;;;;;;;;;689288;28;1756;-68
2023/12/12 00:36:39;;;;;;;11.05;3.42;;;;;;;;;;689646;28;4438;-68
2023/12/12 00:36:59;;;;;;;10.37;3.37;;;;;;;;;;690379;28;1238;-68
2023/12/12 00:37:20;;;;;;;11.27;3.20;;;;;;;;;;689551;28;2353;-68
2023/12/12 00:37:40;;;;;;;13.15;3.30;;;;;;;;;;690495;28;1069;-68
2023/12/12 00:38:01;;;;;;;11.20;3.40;;;;;;;;;;690318;28;959;-68
2023/12/12 00:38:28;;;;;;;9.40;3.17;;;;;;;;;;688593;28;1862;-69
2023/12/12 00:38:48;;;;;;;11.20;3.22;;;;;;;;;;689423;28;5082;-68
2023/12/12 00:39:08;;;;;;;10.17;3.20;;;;;;;;;;689855;28;1182;-69
2023/12/12 00:39:28;;;;;;;10.20;3.53;;;;;;;;;;689733;28;1726;-68
2023/12/12 00:39:49;;;;;;;10.63;3.33;;;;;;;;;;689595;28;4313;-68
2023/12/12 00:40:09;;;;;;;12.25;3.55;;;;;;;;;;690595;28;991;-68
2023/12/12 00:40:31;;;;;;;10.70;3.30;;;;;;;;;;690514;28;998;-69
2023/12/12 00:40:52;;;;;;;8.45;3.20;;;;;;;;;;690111;28;813;-68
2023/12/12 00:41:12;;;;;;;9.48;3.40;;;;;;;;;;689242;28;2776;-68
2023/12/12 00:41:34;;;;;;;9.65;3.65;;;;;;;;;;691556;28;915;-69
2023/12/12 00:41:54;;;;;;;10.45;3.83;;;;;;;;;;690266;28;919;-68
2023/12/12 00:42:14;;;;;;;10.00;3.40;;;;;;;;;;689433;28;2323;-68
2023/12/12 00:42:34;;;;;;;10.63;3.30;;;;;;;;;;690000;28;4322;-69
2023/12/12 00:42:55;;;;;;;10.37;3.20;;;;;;;;;;690160;28;915;-68
2023/12/12 00:43:15;;;;;;;9.17;3.20;;;;;;;;;;689062;28;1682;-69
2023/12/12 00:43:35;;;;;;;9.77;3.30;;;;;;;;;;690374;28;873;-69
2023/12/12 00:43:55;;;;;;;10.20;2.97;;;;;;;;;;689669;28;1313;-69
2023/12/12 00:44:16;;;;;;;12.10;3.30;;;;;;;;;;690268;28;2512;-68
2023/12/12 00:44:36;;;;;;;12.27;3.20;;;;;;;;;;690343;28;899;-68
2023/12/12 00:44:56;;;;;;;10.77;2.97;;;;;;;;;;689940;28;876;-69
2023/12/12 00:45:16;;;;;;;11.57;3.00;;;;;;;;;;688813;28;1781;-69
2023/12/12 00:45:37;;;;;;;9.70;3.20;;;;;;;;;;689799;28;4352;-69
2023/12/12 00:45:57;;;;;;;8.13;3.33;;;;;;;;;;688491;28;794;-69
2023/12/12 00:46:17;;;;;;;9.90;3.13;;;;;;;;;;686520;28;1681;-68
2023/12/12 00:46:37;;;;;;;9.37;3.00;;;;;;;;;;685943;28;889;-68
2023/12/12 00:46:58;;;;;;;10.43;3.07;;;;;;;;;;685509;28;886;-69
2023/12/12 00:47:18;;;;;;;11.10;3.15;;;;;;;;;;685100;28;1951;-69
2023/12/12 00:47:38;;;;;;;9.33;3.13;;;;;;;;;;688009;28;825;-69
2023/12/12 00:47:58;;;;;;;9.30;3.30;;;;;;;;;;688580;28;912;-68
2023/12/12 00:48:18;;;;;;;10.67;3.57;;;;;;;;;;688612;28;2262;-69
2023/12/12 00:48:39;;;;;;;10.57;3.70;;;;;;;;;;690093;28;4266;-68
2023/12/12 00:48:59;;;;;;;9.23;3.20;;;;;;;;;;690325;28;999;-69
2023/12/12 00:49:20;;;;;;;12.53;3.70;;;;;;;;;;688841;28;2030;-68
2023/12/12 00:49:40;;;;;;;12.33;3.87;;;;;;;;;;690469;28;979;-69
2023/12/12 00:50:01;;;;;;;10.65;3.38;;;;;;;;;;690427;28;859;-68
2023/12/12 00:50:21;;;;;;;10.38;3.45;;;;;;;;;;689567;28;2329;-68
2023/12/12 00:50:42;;;;;;;10.67;3.43;;;;;;;;;;690435;28;927;-69
2023/12/12 00:51:02;;;;;;;9.43;3.10;;;;;;;;;;690314;28;927;-69
2023/12/12 00:51:22;;;;;;;8.68;3.13;;;;;;;;;;689397;28;1424;-68
2023/12/12 00:51:42;;;;;;;11.13;3.40;;;;;;;;;;689752;28;4255;-68
2023/12/12 00:52:03;;;;;;;11.47;3.73;;;;;;;;;;690289;28;832;-68
2023/12/12 00:52:23;;;;;;;11.80;3.97;;;;;;;;;;689075;28;1771;-69
2023/12/12 00:52:44;;;;;;;12.33;4.73;;;;;;;;;;690585;28;902;-69
2023/12/12 00:53:04;;;;;;;12.63;4.00;;;;;;;;;;690633;28;801;-68
2023/12/12 00:53:24;;;;;;;11.37;3.70;;;;;;;;;;690258;28;986;-69
2023/12/12 00:53:45;;;;;;;8.97;3.70;;;;;;;;;;690223;28;786;-68
2023/12/12 00:54:05;;;;;;;10.93;3.50;;;;;;;;;;690369;28;1922;-68
2023/12/12 00:54:25;;;;;;;12.40;3.90;;;;;;;;;;690896;28;1763;-68
2023/12/12 00:54:45;;;;;;;14.23;3.80;;;;;;;;;;690021;28;4276;-68
2023/12/12 00:55:06;;;;;;;11.88;3.50;;;;;;;;;;690469;28;801;-68
2023/12/12 00:55:26;;;;;;;10.93;3.43;;;;;;;;;;689057;28;2501;-69
2023/12/12 00:55:46;;;;;;;8.70;3.43;;;;;;;;;;690466;28;892;-68
2023/12/12 00:56:07;;;;;;;9.82;3.30;;;;;;;;;;690430;28;959;-68
2023/12/12 00:56:28;;;;;;;12.23;3.37;;;;;;;;;;689157;28;1790;-68
2023/12/12 00:56:48;;;;;;;11.85;3.45;;;;;;;;;;690583;28;1130;-68
2023/12/12 00:57:08;;;;;;;9.67;3.30;;;;;;;;;;690549;28;931;-69
2023/12/12 00:57:28;;;;;;;10.85;3.38;;;;;;;;;;688898;28;2473;-68
2023/12/12 00:57:48;;;;;;;9.50;3.20;;;;;;;;;;689046;28;4340;-69
2023/12/12 00:58:09;;;;;;;10.13;3.10;;;;;;;;;;690078;28;900;-68
2023/12/12 00:58:29;;;;;;;9.00;3.20;;;;;;;;;;689222;28;1713;-69
2023/12/12 00:58:49;;;;;;;11.57;3.17;;;;;;;;;;689979;28;876;-68
2023/12/12 00:59:09;;;;;;;10.63;3.13;;;;;;;;;;690283;28;746;-68
2023/12/12 00:59:30;;;;;;;10.60;3.17;;;;;;;;;;690608;28;1831;-69
2023/12/12 00:59:50;;;;;;;8.77;2.97;;;;;;;;;;689659;28;1588;-68
2023/12/12 01:00:10;;;;;;;7.63;2.70;;;;;;;;;;690319;28;951;-68
2023/12/12 01:00:31;;;;;;;9.10;2.90;;;;;;;;;;690183;28;984;-69
2023/12/12 01:00:51;;;;;;;10.67;3.00;;;;;;;;;;689334;28;4292;-68
2023/12/12 01:01:13;;;;;;;11.10;3.30;;;;;;;;;;689204;28;2426;-69
2023/12/12 01:01:34;;;;;;;12.30;3.35;;;;;;;;;;690306;28;952;-68
2023/12/12 01:01:54;;;;;;;11.07;2.83;;;;;;;;;;686963;28;1301;-68
2023/12/12 01:02:14;;;;;;;10.17;3.00;;;;;;;;;;686728;28;1081;-69
2023/12/12 01:02:34;;;;;;;11.00;3.53;;;;;;;;;;687258;28;3772;-69
2023/12/12 01:02:54;;;;;;;12.77;3.92;;;;;;;;;;686407;28;1091;-68
2023/12/12 01:03:15;;;;;;;16.70;4.70;;;;;;;;;;687339;28;1589;-68
2023/12/12 01:03:35;;;;;;;16.97;4.63;;;;;;;;;;687886;28;4472;-68
2023/12/12 01:03:55;;;;;;;17.00;4.60;;;;;;;;;;690329;28;855;-68
2023/12/12 01:04:15;;;;;;;13.03;4.73;;;;;;;;;;689166;28;1850;-69
2023/12/12 01:04:36;;;;;;;11.40;3.73;;;;;;;;;;692162;28;908;-68
2023/12/12 01:04:56;;;;;;;12.70;3.90;;;;;;;;;;689742;28;821;-69
2023/12/12 01:05:16;;;;;;;13.05;3.38;;;;;;;;;;689263;28;2658;-68
2023/12/12 01:05:36;;;;;;;11.77;3.13;;;;;;;;;;687652;28;877;-68
2023/12/12 01:05:57;;;;;;;12.93;3.40;;;;;;;;;;686988;28;782;-69
2023/12/12 01:06:23;;;;;;;12.27;3.67;;;;;;;;;;686307;28;892;-68
2023/12/12 01:06:43;;;;;;;13.38;4.15;;;;;;;;;;687928;28;4308;-69
2023/12/12 01:07:03;;;;;;;11.07;3.57;;;;;;;;;;689776;28;936;-68
2023/12/12 01:07:24;;;;;;;12.50;3.90;;;;;;;;;;690004;28;1730;-68
2023/12/12 01:07:44;;;;;;;12.37;3.53;;;;;;;;;;690603;28;881;-69
2023/12/12 01:08:04;;;;;;;9.90;2.93;;;;;;;;;;689694;28;1554;-68
2023/12/12 01:08:24;;;;;;;7.47;2.93;;;;;;;;;;688871;28;2231;-69
2023/12/12 01:08:45;;;;;;;7.68;3.00;;;;;;;;;;690207;28;913;-68
2023/12/12 01:09:05;;;;;;;11.83;3.10;;;;;;;;;;690069;28;944;-69
2023/12/12 01:09:26;;;;;;;12.23;3.15;;;;;;;;;;689623;28;1904;-69
2023/12/12 01:09:46;;;;;;;10.07;3.47;;;;;;;;;;690292;28;4391;-68
2023/12/12 01:10:06;;;;;;;10.77;3.43;;;;;;;;;;690897;28;790;-69
2023/12/12 01:10:27;;;;;;;10.77;3.08;;;;;;;;;;690238;28;1437;-68
2023/12/12 01:10:47;;;;;;;10.23;2.80;;;;;;;;;;691121;28;813;-69
2023/12/12 01:11:07;;;;;;;10.02;2.70;;;;;;;;;;690939;28;936;-68
2023/12/12 01:11:28;;;;;;;9.93;3.00;;;;;;;;;;689708;28;2191;-68
2023/12/12 01:11:48;;;;;;;9.97;3.07;;;;;;;;;;689925;28;976;-69
2023/12/12 01:12:08;;;;;;;8.07;2.70;;;;;;;;;;688175;28;911;-68
2023/12/12 01:12:28;;;;;;;8.83;2.90;;;;;;;;;;686316;28;1913;-68
2023/12/12 01:12:49;;;;;;;9.63;3.10;;;;;;;;;;687551;28;4396;-68
2023/12/12 01:13:09;;;;;;;10.70;3.17;;;;;;;;;;687893;28;856;-69
2023/12/12 01:13:29;;;;;;;10.37;3.10;;;;;;;;;;686801;28;1845;-68
2023/12/12 01:13:49;;;;;;;11.97;3.43;;;;;;;;;;687861;28;1983;-69
2023/12/12 01:14:10;;;;;;;10.30;2.90;;;;;;;;;;690959;28;844;-69
2023/12/12 01:14:31;;;;;;;10.82;2.80;;;;;;;;;;689100;28;1812;-69
2023/12/12 01:14:58;;;;;;;7.90;2.67;;;;;;;;;;690668;28;1038;-69
2023/12/12 01:15:18;;;;;;;9.82;3.03;;;;;;;;;;689495;28;2321;-68
2023/12/12 01:15:38;;;;;;;10.20;2.60;;;;;;;;;;691047;28;4290;-67
2023/12/12 01:15:58;;;;;;;11.07;3.00;;;;;;;;;;690728;28;841;-69
2023/12/12 01:16:19;;;;;;;10.50;3.00;;;;;;;;;;689206;28;3447;-68
2023/12/12 01:16:39;;;;;;;7.80;2.70;;;;;;;;;;690331;28;804;-70
2023/12/12 01:17:00;;;;;;;8.97;2.47;;;;;;;;;;690557;28;1200;-68
2023/12/12 01:17:20;;;;;;;8.98;2.85;;;;;;;;;;688857;28;2187;-68
2023/12/12 01:17:40;;;;;;;10.13;3.67;;;;;;;;;;690457;28;920;-68
2023/12/12 01:18:00;;;;;;;12.93;4.70;;;;;;;;;;689539;28;1320;-68
2023/12/12 01:18:21;;;;;;;14.27;5.00;;;;;;;;;;688519;28;1713;-68
2023/12/12 01:18:41;;;;;;;11.07;4.00;;;;;;;;;;688988;28;4428;-69
2023/12/12 01:19:02;;;;;;;12.30;4.05;;;;;;;;;;690781;28;940;-68
2023/12/12 01:19:22;;;;;;;10.90;4.30;;;;;;;;;;689681;28;2194;-68
2023/12/12 01:19:42;;;;;;;8.73;3.47;;;;;;;;;;687705;28;789;-68
2023/12/12 01:20:03;;;;;;;9.60;3.37;;;;;;;;;;690757;28;1014;-71
2023/12/12 01:20:24;;;;;;;10.88;3.55;;;;;;;;;;689494;28;2207;-69
2023/12/12 01:20:44;;;;;;;11.05;3.50;;;;;;;;;;687068;28;984;-68
2023/12/12 01:21:04;;;;;;;9.73;3.40;;;;;;;;;;688005;28;978;-68
2023/12/12 01:21:25;;;;;;;10.77;3.10;;;;;;;;;;687090;28;2281;-69
2023/12/12 01:21:45;;;;;;;12.03;3.40;;;;;;;;;;688678;28;4336;-68
2023/12/12 01:22:05;;;;;;;14.00;4.10;;;;;;;;;;688162;28;952;-69
2023/12/12 01:22:25;;;;;;;14.83;4.70;;;;;;;;;;687103;28;1478;-69
2023/12/12 01:22:46;;;;;;;13.63;4.40;;;;;;;;;;687472;28;1183;-68
2023/12/12 01:23:06;;;;;;;11.33;3.50;;;;;;;;;;687979;28;805;-68
2023/12/12 01:23:26;;;;;;;11.33;3.40;;;;;;;;;;687822;28;1901;-68
2023/12/12 01:23:50;;;;;;;11.57;3.13;;;;;;;;;;688807;28;758;-68
2023/12/12 01:24:10;;;;;;;11.23;3.05;;;;;;;;;;690561;28;865;-69
2023/12/12 01:24:30;;;;;;;8.38;2.95;;;;;;;;;;689925;28;2677;-68
2023/12/12 01:24:51;;;;;;;11.70;3.03;;;;;;;;;;689977;28;4429;-68
2023/12/12 01:25:11;;;;;;;10.27;3.10;;;;;;;;;;690974;28;893;-69
2023/12/12 01:25:31;;;;;;;11.80;2.97;;;;;;;;;;691507;28;1726;-70
2023/12/12 01:25:51;;;;;;;9.90;2.70;;;;;;;;;;690447;28;1317;-69
2023/12/12 01:26:12;;;;;;;10.40;3.03;;;;;;;;;;690864;28;876;-68
2023/12/12 01:26:32;;;;;;;9.98;3.00;;;;;;;;;;690890;28;1031;-68
2023/12/12 01:26:53;;;;;;;8.90;2.93;;;;;;;;;;690227;28;899;-68
2023/12/12 01:27:13;;;;;;;9.50;3.08;;;;;;;;;;690499;28;963;-68
2023/12/12 01:27:34;;;;;;;9.80;3.20;;;;;;;;;;689709;28;2247;-68
2023/12/12 01:27:54;;;;;;;8.10;2.90;;;;;;;;;;690259;28;4207;-69
2023/12/12 01:28:14;;;;;;;9.40;2.60;;;;;;;;;;688870;28;1492;-69
2023/12/12 01:28:34;;;;;;;11.93;2.80;;;;;;;;;;689715;28;932;-68
2023/12/12 01:28:54;;;;;;;9.63;3.10;;;;;;;;;;691142;28;1049;-69
2023/12/12 01:29:16;;;;;;;10.50;3.05;;;;;;;;;;689314;28;2452;-68
2023/12/12 01:29:36;;;;;;;9.45;2.90;;;;;;;;;;690869;28;968;-68
2023/12/12 01:29:56;;;;;;;9.90;2.90;;;;;;;;;;689749;28;834;-68
2023/12/12 01:30:17;;;;;;;11.77;3.20;;;;;;;;;;689161;28;1580;-68
2023/12/12 01:30:37;;;;;;;12.30;3.17;;;;;;;;;;690260;28;4489;-68
2023/12/12 01:30:59;;;;;;;9.00;2.73;;;;;;;;;;690528;28;939;-69
2023/12/12 01:31:19;;;;;;;8.52;3.00;;;;;;;;;;688254;28;1855;-68
2023/12/12 01:31:39;;;;;;;9.85;3.53;;;;;;;;;;691524;28;795;-68
2023/12/12 01:32:00;;;;;;;11.93;3.20;;;;;;;;;;690788;28;971;-68
2023/12/12 01:32:20;;;;;;;12.47;3.17;;;;;;;;;;689222;28;2603;-68
2023/12/12 01:32:40;;;;;;;13.02;3.10;;;;;;;;;;690850;28;928;-68
2023/12/12 01:33:00;;;;;;;10.43;3.03;;;;;;;;;;690749;28;983;-68
2023/12/12 01:33:23;;;;;;;10.67;2.90;;;;;;;;;;688570;28;1035;-68
2023/12/12 01:33:43;;;;;;;10.07;2.95;;;;;;;;;;687199;28;4567;-68
2023/12/12 01:34:04;;;;;;;9.90;2.80;;;;;;;;;;688173;28;1902;-68
2023/12/12 01:34:24;;;;;;;9.07;2.80;;;;;;;;;;689963;28;1884;-69
2023/12/12 01:34:44;;;;;;;8.13;2.70;;;;;;;;;;689178;28;917;-68
2023/12/12 01:35:05;;;;;;;8.87;2.90;;;;;;;;;;687181;28;909;-68
2023/12/12 01:35:25;;;;;;;9.45;2.58;;;;;;;;;;685594;28;2416;-68
2023/12/12 01:35:45;;;;;;;8.90;2.70;;;;;;;;;;688191;28;821;-68
2023/12/12 01:36:06;;;;;;;8.20;2.83;;;;;;;;;;688101;28;865;-68
2023/12/12 01:36:26;;;;;;;8.73;2.60;;;;;;;;;;686539;28;1766;-68
2023/12/12 01:36:46;;;;;;;11.37;3.10;;;;;;;;;;687601;28;4250;-68
2023/12/12 01:37:06;;;;;;;9.68;2.70;;;;;;;;;;690725;28;1184;-68
2023/12/12 01:37:27;;;;;;;8.33;2.60;;;;;;;;;;689117;28;1793;-68
2023/12/12 01:37:47;;;;;;;8.17;2.90;;;;;;;;;;691152;28;889;-69
2023/12/12 01:38:08;;;;;;;8.15;2.53;;;;;;;;;;690829;28;763;-68
2023/12/12 01:38:29;;;;;;;9.10;2.97;;;;;;;;;;689539;28;1885;-68
2023/12/12 01:38:49;;;;;;;10.85;3.13;;;;;;;;;;690644;28;5236;-68
2023/12/12 01:39:09;;;;;;;10.80;2.80;;;;;;;;;;688303;28;1226;-68
2023/12/12 01:39:30;;;;;;;11.30;2.93;;;;;;;;;;683421;28;1570;-68
2023/12/12 01:39:50;;;;;;;12.03;2.73;;;;;;;;;;684683;28;4222;-68
2023/12/12 01:40:10;;;;;;;10.30;2.70;;;;;;;;;;685512;28;932;-69
2023/12/12 01:40:31;;;;;;;8.57;2.47;;;;;;;;;;684341;28;975;-68
2023/12/12 01:40:51;;;;;;;7.95;2.20;;;;;;;;;;684803;28;775;-68
2023/12/12 01:41:12;;;;;;;7.63;2.53;;;;;;;;;;687416;28;897;-69
2023/12/12 01:41:32;;;;;;;8.13;2.80;;;;;;;;;;689385;28;1817;-68
2023/12/12 01:41:52;;;;;;;9.30;2.90;;;;;;;;;;688563;28;874;-69
2023/12/12 01:42:13;;;;;;;9.85;2.90;;;;;;;;;;690198;28;948;-69
2023/12/12 01:42:34;;;;;;;10.27;2.95;;;;;;;;;;690609;28;2307;-69
2023/12/12 01:43:04;;;;;;;10.87;3.10;;;;;;;;;;690157;28;4109;-68
2023/12/12 01:43:25;;;;;;;7.70;2.72;;;;;;;;;;689256;28;2462;-68
2023/12/12 01:43:46;;;;;;;8.10;2.80;;;;;;;;;;690207;28;1041;-68
2023/12/12 01:44:06;;;;;;;10.70;3.20;;;;;;;;;;690773;28;928;-69
2023/12/12 01:44:26;;;;;;;11.87;3.30;;;;;;;;;;690765;28;2258;-69
2023/12/12 01:44:46;;;;;;;10.77;2.88;;;;;;;;;;690573;28;889;-68
2023/12/12 01:45:07;;;;;;;10.87;2.87;;;;;;;;;;690509;28;719;-69
2023/12/12 01:45:28;;;;;;;9.95;2.85;;;;;;;;;;689636;28;1430;-69
2023/12/12 01:45:48;;;;;;;8.73;2.60;;;;;;;;;;688989;28;4288;-68
2023/12/12 01:46:11;;;;;;;8.20;2.90;;;;;;;;;;690529;28;1069;-68
2023/12/12 01:46:32;;;;;;;9.02;2.80;;;;;;;;;;689704;28;2407;-69
2023/12/12 01:46:52;;;;;;;9.77;2.83;;;;;;;;;;688129;28;984;-69
2023/12/12 01:47:12;;;;;;;9.43;2.87;;;;;;;;;;687977;28;984;-69
2023/12/12 01:47:33;;;;;;;9.27;2.90;;;;;;;;;;687029;28;1200;-69
2023/12/12 01:47:53;;;;;;;8.82;2.80;;;;;;;;;;684626;28;1027;-68
2023/12/12 01:48:13;;;;;;;10.73;2.93;;;;;;;;;;684574;28;854;-69
2023/12/12 01:48:34;;;;;;;9.80;3.22;;;;;;;;;;687770;28;1735;-68
2023/12/12 01:48:54;;;;;;;9.37;3.10;;;;;;;;;;690181;28;4285;-68
2023/12/12 01:49:18;;;;;;;9.47;3.30;;;;;;;;;;690358;28;912;-68
2023/12/12 01:49:38;;;;;;;8.35;3.08;;;;;;;;;;687763;28;945;-69
2023/12/12 01:49:58;;;;;;;8.07;2.90;;;;;;;;;;688141;28;811;-69
2023/12/12 01:50:18;;;;;;;8.80;2.97;;;;;;;;;;689426;28;2270;-68
2023/12/12 01:50:39;;;;;;;10.07;3.47;;;;;;;;;;690491;28;876;-69
2023/12/12 01:50:59;;;;;;;8.50;3.20;;;;;;;;;;690827;28;818;-68
2023/12/12 01:51:20;;;;;;;8.33;3.00;;;;;;;;;;689007;28;1064;-69
2023/12/12 01:51:40;;;;;;;8.68;3.13;;;;;;;;;;689460;28;4412;-68
2023/12/12 01:52:00;;;;;;;9.97;3.20;;;;;;;;;;690367;28;917;-69
2023/12/12 01:52:22;;;;;;;9.30;2.87;;;;;;;;;;689626;28;1023;-68
2023/12/12 01:52:42;;;;;;;8.07;2.53;;;;;;;;;;690967;28;960;-69
2023/12/12 01:53:03;;;;;;;10.67;2.73;;;;;;;;;;690850;28;928;-68
2023/12/12 01:53:34;;;;;;;9.30;2.80;;;;;;;;;;689237;28;1080;-69
2023/12/12 01:53:55;;;;;;;7.72;2.70;;;;;;;;;;690219;28;1926;-68
2023/12/12 01:54:16;;;;;;;7.72;2.55;;;;;;;;;;690590;28;886;-69
2023/12/12 01:54:39;;;;;;;7.97;3.03;;;;;;;;;;690252;28;4322;-68
2023/12/12 01:54:59;;;;;;;9.40;2.72;;;;;;;;;;690665;28;891;-69
2023/12/12 01:55:20;;;;;;;9.85;2.78;;;;;;;;;;690337;28;954;-68
2023/12/12 01:55:41;;;;;;;9.57;2.90;;;;;;;;;;691133;28;943;-68
2023/12/12 01:56:02;;;;;;;9.63;3.17;;;;;;;;;;690360;28;924;-68
2023/12/12 01:56:22;;;;;;;11.55;3.22;;;;;;;;;;689735;28;1032;-68
2023/12/12 01:56:45;;;;;;;9.53;2.93;;;;;;;;;;690845;28;936;-68
2023/12/12 01:57:06;;;;;;;6.68;2.80;;;;;;;;;;690808;28;896;-68
2023/12/12 01:57:26;;;;;;;8.90;3.00;;;;;;;;;;688527;28;931;-68
2023/12/12 01:57:47;;;;;;;8.50;2.70;;;;;;;;;;690518;28;4310;-69
2023/12/12 01:58:07;;;;;;;8.37;2.67;;;;;;;;;;690663;28;1275;-68
2023/12/12 01:58:27;;;;;;;8.90;2.85;;;;;;;;;;689227;28;1020;-69
2023/12/12 01:58:49;;;;;;;9.47;3.13;;;;;;;;;;690385;28;2969;-68
2023/12/12 01:59:10;;;;;;;8.90;2.80;;;;;;;;;;690854;28;1434;-68
2023/12/12 01:59:30;;;;;;;8.80;2.72;;;;;;;;;;686752;28;924;-69
2023/12/12 01:59:51;;;;;;;8.87;2.80;;;;;;;;;;687867;28;865;-68
2023/12/12 02:00:12;;;;;;;9.00;2.90;;;;;;;;;;686362;28;1047;-68
2023/12/12 02:00:32;;;;;;;7.53;3.10;;;;;;;;;;686861;28;947;-68
2023/12/12 02:00:53;;;;;;;7.73;2.80;;;;;;;;;;687399;28;4225;-68
2023/12/12 02:01:14;;;;;;;8.63;3.00;;;;;;;;;;690764;28;885;-69
2023/12/12 02:01:34;;;;;;;8.75;2.70;;;;;;;;;;689688;28;1007;-69
2023/12/12 02:01:54;;;;;;;9.33;3.00;;;;;;;;;;690744;28;956;-67
2023/12/12 02:02:16;;;;;;;8.68;2.88;;;;;;;;;;690604;28;791;-68
2023/12/12 02:02:37;;;;;;;7.13;2.90;;;;;;;;;;691555;28;936;-68
2023/12/12 02:02:57;;;;;;;8.97;2.80;;;;;;;;;;690475;28;774;-69
2023/12/12 02:03:18;;;;;;;9.00;2.85;;;;;;;;;;689721;28;1593;-69
2023/12/12 02:03:39;;;;;;;9.67;3.13;;;;;;;;;;690352;28;4348;-68
2023/12/12 02:04:00;;;;;;;9.25;2.75;;;;;;;;;;690461;28;1019;-69
2023/12/12 02:04:21;;;;;;;8.57;2.75;;;;;;;;;;688119;28;1083;-68
2023/12/12 02:04:41;;;;;;;11.57;3.57;;;;;;;;;;690991;28;924;-69
2023/12/12 02:05:02;;;;;;;10.88;3.30;;;;;;;;;;690306;28;884;-68
2023/12/12 02:05:23;;;;;;;11.33;3.27;;;;;;;;;;689869;28;1042;-69
2023/12/12 02:05:43;;;;;;;10.75;3.00;;;;;;;;;;690724;28;844;-68
2023/12/12 02:06:05;;;;;;;9.00;2.70;;;;;;;;;;690602;28;774;-68
2023/12/12 02:06:25;;;;;;;9.95;2.70;;;;;;;;;;689467;28;1560;-68
2023/12/12 02:06:46;;;;;;;8.53;2.83;;;;;;;;;;690048;28;4252;-69
2023/12/12 02:07:07;;;;;;;5.97;2.63;;;;;;;;;;688264;28;833;-69
2023/12/12 02:07:28;;;;;;;8.10;3.00;;;;;;;;;;691064;28;1098;-68